createdAt,value
2018-10-03T00:00:35.003Z,100678.40
2018-10-03T00:03:04.629Z,100679.81
2018-10-03T00:05:33.976Z,100689.81
2018-10-03T00:08:02.682Z,100681.88
2018-10-03T00:10:31.908Z,100678.65
2018-10-03T00:13:01.002Z,100688.54
2018-10-03T00:15:30.249Z,100690.95
2018-10-03T00:18:01.321Z,100699.50
2018-10-03T00:20:31.017Z,100690.66
2018-10-03T00:23:00.852Z,100698.39
2018-10-03T00:25:29.643Z,100686.88
2018-10-03T00:27:58.770Z,100682.55
2018-10-03T00:30:27.866Z,100697.19
2018-10-03T00:32:56.903Z,100698.22
2018-10-03T00:35:25.418Z,100700.48
2018-10-03T00:37:54.198Z,100695.69
2018-10-03T00:40:22.951Z,100705.35
2018-10-03T00:42:51.556Z,100698.49
2018-10-03T00:45:20.306Z,100687.79
2018-10-03T00:47:49.015Z,100692.87
2018-10-03T00:50:18.088Z,100693.16
2018-10-03T00:52:46.749Z,100689.64
2018-10-03T00:55:15.681Z,100687.59
2018-10-03T00:57:44.604Z,100695.28
2018-10-03T01:00:13.546Z,100700.61
2018-10-03T01:02:42.535Z,100691.64
2018-10-03T01:05:11.261Z,100683.76
2018-10-03T01:07:40.180Z,100693.30
2018-10-03T01:10:08.823Z,100691.08
2018-10-03T01:12:37.737Z,100694.84
2018-10-03T01:15:06.809Z,100700.83
2018-10-03T01:17:35.535Z,100702.14
2018-10-03T01:20:04.315Z,100698.50
2018-10-03T01:22:32.862Z,100691.36
2018-10-03T01:25:01.523Z,100699.92
2018-10-03T01:27:30.876Z,100698.82
2018-10-03T01:30:00.812Z,100689.98
2018-10-03T01:32:30.049Z,100696.44
2018-10-03T01:34:58.881Z,100709.66
2018-10-03T01:37:27.375Z,100704.73
2018-10-03T01:39:56.151Z,100706.80
2018-10-03T01:42:24.992Z,100709.59
2018-10-03T01:44:53.851Z,100712.69
2018-10-03T01:47:22.567Z,100714.33
2018-10-03T01:49:51.255Z,100712.11
2018-10-03T01:52:19.945Z,100720.36
2018-10-03T01:54:48.627Z,100726.99
2018-10-03T01:57:17.174Z,100727.06
2018-10-03T01:59:46.590Z,100727.60
2018-10-03T02:02:15.170Z,100737.98
2018-10-03T02:04:44.353Z,100722.84
2018-10-03T02:07:13.090Z,100726.13
2018-10-03T02:09:41.790Z,100742.28
2018-10-03T02:12:10.626Z,100730.16
2018-10-03T02:14:39.567Z,100734.28
2018-10-03T02:17:08.642Z,100749.90
2018-10-03T02:19:37.430Z,100729.13
2018-10-03T02:22:06.266Z,100735.55
2018-10-03T02:24:34.906Z,100721.31
2018-10-03T02:27:03.825Z,100724.10
2018-10-03T02:29:32.475Z,100748.00
2018-10-03T02:32:01.014Z,100746.30
2018-10-03T02:34:29.847Z,100731.45
2018-10-03T02:36:58.359Z,100721.79
2018-10-03T02:39:27.011Z,100723.72
2018-10-03T02:41:55.902Z,100723.38
2018-10-03T02:44:24.596Z,100729.13
2018-10-03T02:46:53.215Z,100736.19
2018-10-03T02:49:21.929Z,100737.86
2018-10-03T02:51:50.476Z,100756.81
2018-10-03T02:54:19.181Z,100753.27
2018-10-03T02:56:48.193Z,100745.04
2018-10-03T02:59:16.938Z,100752.18
2018-10-03T03:01:45.808Z,100751.94
2018-10-03T03:04:14.353Z,100751.02
2018-10-03T03:06:43.156Z,100754.14
2018-10-03T03:09:13.580Z,100751.69
2018-10-03T03:11:42.385Z,100751.69
2018-10-03T03:14:11.235Z,100750.81
2018-10-03T03:16:39.943Z,100745.92
2018-10-03T03:19:08.440Z,100746.55
2018-10-03T03:21:37.018Z,100744.63
2018-10-03T03:24:05.588Z,100750.44
2018-10-03T03:26:34.117Z,100738.16
2018-10-03T03:29:02.934Z,100748.85
2018-10-03T03:31:31.660Z,100743.41
2018-10-03T03:34:00.425Z,100753.99
2018-10-03T03:36:29.083Z,100755.86
2018-10-03T03:38:57.877Z,100755.05
2018-10-03T03:41:26.470Z,100768.95
2018-10-03T03:43:55.119Z,100758.86
2018-10-03T03:46:23.866Z,100753.06
2018-10-03T03:48:52.539Z,100752.23
2018-10-03T03:51:21.210Z,100751.77
2018-10-03T03:53:50.033Z,100752.08
2018-10-03T03:56:18.687Z,100759.66
2018-10-03T03:58:47.320Z,100760.50
2018-10-03T04:04:11.686Z,100765.70
2018-10-03T04:06:40.782Z,100770.09
2018-10-03T04:09:10.530Z,100765.39
2018-10-03T04:11:39.430Z,100754.19
2018-10-03T04:14:08.123Z,100757.16
2018-10-03T04:16:36.968Z,100762.97
2018-10-03T04:19:05.464Z,100767.37
2018-10-03T04:21:40.104Z,100770.37
2018-10-03T04:24:09.905Z,100769.56
2018-10-03T04:26:40.488Z,100770.05
2018-10-03T04:29:09.096Z,100767.52
2018-10-03T04:31:38.268Z,100776.31
2018-10-03T04:34:07.346Z,100769.50
2018-10-03T04:36:36.162Z,100780.96
2018-10-03T04:39:06.937Z,100777.68
2018-10-03T04:41:36.242Z,100790.38
2018-10-03T04:44:04.720Z,100787.31
2018-10-03T04:46:33.715Z,100784.31
2018-10-03T04:49:02.303Z,100778.55
2018-10-03T04:51:31.009Z,100786.02
2018-10-03T04:53:59.864Z,100798.55
2018-10-03T04:56:28.603Z,100795.88
2018-10-03T04:58:57.241Z,100800.77
2018-10-03T05:01:25.994Z,100791.44
2018-10-03T05:03:54.957Z,100802.95
2018-10-03T05:06:23.915Z,100813.63
2018-10-03T05:08:52.709Z,100807.59
2018-10-03T05:11:21.496Z,100809.75
2018-10-03T05:13:50.063Z,100815.23
2018-10-03T05:16:18.787Z,100831.95
2018-10-03T05:18:47.605Z,100806.41
2018-10-03T05:21:16.290Z,100816.55
2018-10-03T05:23:44.911Z,100827.50
2018-10-03T05:26:13.470Z,100834.09
2018-10-03T05:28:42.516Z,100837.60
2018-10-03T05:31:11.106Z,100837.01
2018-10-03T05:33:40.791Z,100842.98
2018-10-03T05:36:09.658Z,100842.67
2018-10-03T05:38:38.353Z,100833.66
2018-10-03T05:41:07.411Z,100837.19
2018-10-03T05:43:36.161Z,100848.73
2018-10-03T05:46:04.879Z,100861.58
2018-10-03T05:48:33.670Z,100846.23
2018-10-03T05:51:02.247Z,100850.66
2018-10-03T05:53:31.033Z,100852.05
2018-10-03T05:55:59.802Z,100864.97
2018-10-03T05:58:28.451Z,100877.86
2018-10-03T06:00:57.186Z,100869.12
2018-10-03T06:03:26.027Z,100900.03
2018-10-03T06:05:54.589Z,100873.66
2018-10-03T06:08:29.974Z,100873.38
2018-10-03T06:10:58.721Z,100864.11
2018-10-03T06:13:27.340Z,100881.64
2018-10-03T06:15:56.050Z,100882.70
2018-10-03T06:18:25.096Z,100893.17
2018-10-03T06:20:53.650Z,100893.08
2018-10-03T06:23:22.308Z,100901.48
2018-10-03T06:25:51.162Z,100895.77
2018-10-03T06:28:19.994Z,100909.17
2018-10-03T06:30:49.119Z,100900.15
2018-10-03T06:33:18.712Z,100909.64
2018-10-03T06:35:48.450Z,100892.64
2018-10-03T06:38:17.234Z,100908.78
2018-10-03T06:40:46.038Z,100925.02
2018-10-03T06:43:14.852Z,100918.66
2018-10-03T06:45:43.805Z,100926.34
2018-10-03T06:48:12.650Z,100921.52
2018-10-03T06:50:41.348Z,100938.13
2018-10-03T06:53:10.013Z,100932.92
2018-10-03T06:55:38.682Z,100934.58
2018-10-03T06:58:07.815Z,100944.78
2018-10-03T07:00:36.478Z,100944.23
2018-10-03T07:03:05.543Z,100943.95
2018-10-03T07:05:34.224Z,100958.50
2018-10-03T07:08:03.842Z,100959.08
2018-10-03T07:10:32.509Z,100963.47
2018-10-03T07:13:01.628Z,100974.44
2018-10-03T07:15:30.440Z,100972.94
2018-10-03T07:17:59.723Z,100982.81
2018-10-03T07:20:29.907Z,100982.04
2018-10-03T07:22:58.502Z,100990.39
2018-10-03T07:25:27.451Z,100988.11
2018-10-03T07:27:56.080Z,100988.70
2018-10-03T07:30:27.785Z,100998.80
2018-10-03T07:32:57.151Z,100985.92
2018-10-03T07:35:26.269Z,100992.92
2018-10-03T07:37:55.116Z,101003.15
2018-10-03T07:40:24.043Z,101012.16
2018-10-03T07:42:53.719Z,101011.93
2018-10-03T07:45:22.646Z,101025.86
2018-10-03T07:47:51.680Z,101020.29
2018-10-03T07:50:21.156Z,101025.17
2018-10-03T07:52:51.192Z,101035.00
2018-10-03T07:55:19.908Z,101035.40
2018-10-03T07:57:49.759Z,101045.00
2018-10-03T08:00:25.053Z,101034.98
2018-10-03T08:02:54.141Z,101042.53
2018-10-03T08:05:25.284Z,101040.16
2018-10-03T08:07:57.629Z,101046.17
2018-10-03T08:10:28.418Z,101043.28
2018-10-03T08:12:57.508Z,101052.17
2018-10-03T08:15:26.701Z,101058.71
2018-10-03T08:17:57.235Z,101057.05
2018-10-03T08:20:30.830Z,101065.02
2018-10-03T08:23:00.233Z,101087.52
2018-10-03T08:25:29.607Z,101074.02
2018-10-03T08:27:59.569Z,101081.95
2018-10-03T08:30:30.060Z,101065.27
2018-10-03T08:32:59.589Z,101082.35
2018-10-03T08:35:30.159Z,101071.98
2018-10-03T08:38:00.008Z,101077.75
2018-10-03T08:40:31.990Z,101074.92
2018-10-03T08:43:03.323Z,101080.84
2018-10-03T08:45:32.568Z,101083.09
2018-10-03T08:48:02.345Z,101081.70
2018-10-03T08:50:34.789Z,101089.93
2018-10-03T08:53:07.311Z,101097.58
2018-10-03T08:55:37.797Z,101104.67
2018-10-03T08:58:08.790Z,101100.80
2018-10-03T09:00:40.005Z,101108.56
2018-10-03T09:03:09.570Z,101119.79
2018-10-03T09:05:39.326Z,101131.55
2018-10-03T09:08:15.354Z,101131.65
2018-10-03T09:10:47.331Z,101140.12
2018-10-03T09:13:16.254Z,101146.84
2018-10-03T09:15:52.691Z,101141.89
2018-10-03T09:21:29.482Z,101152.86
2018-10-03T09:24:06.425Z,101170.93
2018-10-03T09:26:43.512Z,101173.56
2018-10-03T09:29:20.262Z,101181.78
2018-10-03T09:32:00.309Z,101180.03
2018-10-03T09:34:39.466Z,101187.41
2018-10-03T09:37:25.300Z,101190.52
2018-10-03T09:40:12.296Z,101198.97
2018-10-03T09:42:57.783Z,101198.50
2018-10-03T09:45:38.308Z,101196.23
2018-10-03T09:48:15.872Z,101218.75
2018-10-03T09:53:52.867Z,101213.11
2018-10-03T09:59:35.232Z,101214.30
2018-10-03T10:02:08.590Z,101226.92
2018-10-03T10:05:25.242Z,101216.33
2018-10-03T10:08:05.378Z,101242.68
2018-10-03T10:10:49.777Z,101251.69
2018-10-03T10:23:52.878Z,101270.84
2018-10-03T10:26:34.146Z,101264.44
2018-10-03T10:29:26.399Z,101262.12
2018-10-03T10:32:12.528Z,101260.41
2018-10-03T10:40:52.665Z,101276.65
2018-10-03T10:43:49.633Z,101256.45
2018-10-03T10:46:33.470Z,101263.27
2018-10-03T10:49:37.781Z,101285.05
2018-10-03T10:52:16.278Z,101271.06
2018-10-03T10:55:18.428Z,101281.97
2018-10-03T10:58:00.127Z,101282.03
2018-10-03T11:00:49.307Z,101306.16
2018-10-03T11:03:32.757Z,101294.25
2018-10-03T11:06:18.305Z,101295.49
2018-10-03T11:18:21.266Z,101325.81
2018-10-03T11:21:22.471Z,101324.17
2018-10-03T11:23:57.957Z,101324.75
2018-10-03T11:26:46.204Z,101332.87
2018-10-03T11:29:31.813Z,101332.47
2018-10-03T11:32:15.290Z,101337.45
2018-10-03T11:39:52.183Z,101352.30
2018-10-03T11:42:39.451Z,101379.44
2018-10-03T11:45:41.664Z,101374.01
2018-10-03T11:52:19.210Z,101369.81
2018-10-03T11:58:12.991Z,101378.64
2018-10-03T12:07:09.503Z,101370.53
2018-10-03T12:10:08.149Z,101374.30
2018-10-03T12:22:17.522Z,101385.07
2018-10-03T12:27:50.022Z,101388.89
2018-10-03T12:30:37.387Z,101393.25
2018-10-03T12:40:10.671Z,101404.42
2018-10-03T12:49:31.358Z,101433.80
2018-10-03T12:52:10.293Z,101420.00
2018-10-03T12:54:49.953Z,101430.67
2018-10-03T13:05:40.345Z,101415.70
2018-10-03T13:08:45.161Z,101441.16
2018-10-03T13:14:49.642Z,101453.95
2018-10-03T13:22:55.433Z,101463.68
2018-10-03T13:25:47.247Z,101475.22
2018-10-03T13:31:59.995Z,101481.24
2018-10-03T13:34:53.442Z,101474.07
2018-10-03T13:37:46.280Z,101478.55
2018-10-03T13:43:33.434Z,101484.42
2018-10-03T13:47:03.760Z,101487.83
2018-10-03T13:53:36.626Z,101489.84
2018-10-03T14:02:56.152Z,101497.36
2018-10-03T14:27:59.310Z,101529.23
2018-10-03T14:30:57.033Z,101536.28
2018-10-03T14:33:43.393Z,101530.59
2018-10-03T14:36:23.846Z,101534.58
2018-10-03T14:50:47.158Z,101555.67
2018-10-03T14:53:37.542Z,101554.61
2018-10-03T14:56:17.051Z,101558.13
2018-10-03T15:09:23.984Z,101585.20
2018-10-03T15:12:38.005Z,101578.48
2018-10-03T15:23:24.165Z,101598.05
2018-10-03T15:26:11.450Z,101606.55
2018-10-03T15:32:01.762Z,101608.58
2018-10-03T15:38:53.032Z,101614.56
2018-10-03T15:41:48.261Z,101622.79
2018-10-03T15:50:59.801Z,101632.80
2018-10-03T16:04:02.665Z,101655.88
2018-10-03T16:07:00.964Z,101662.11
